Time;durP1;ratioP1;P1;durP2;ratioP2;P2;SDS_P1;SDS_P2;PMS_P1;PMS_P2;Temp;Humidity;BMP_temperature;BMP_pressure;BME280_temperature;BME280_humidity;BME280_pressure;Samples;Min_cycle;Max_cycle;Signal;HPM_P1;HPM_P2
2022/12/14 00:01:11;;;;;;;39.88;14.05;;;;;;;;;;4976907;28;20374;-56
2022/12/14 00:03:36;;;;;;;29.67;12.15;;;;;;;;;;4971036;28;20076;-56
2022/12/14 00:06:08;;;;;;;32.50;12.25;;;;;;;;;;4975277;28;20026;-56
2022/12/14 00:08:34;;;;;;;28.13;11.07;;;;;;;;;;4981630;28;20018;-54
2022/12/14 00:10:59;;;;;;;34.80;13.60;;;;;;;;;;4983444;28;20442;-54
2022/12/14 00:13:24;;;;;;;31.50;12.73;;;;;;;;;;4982341;28;20412;-56
2022/12/14 00:15:49;;;;;;;30.42;11.10;;;;;;;;;;4975320;28;20461;-55
2022/12/14 00:18:15;;;;;;;22.73;11.88;;;;;;;;;;4982920;28;20126;-57
2022/12/14 00:20:40;;;;;;;30.17;12.38;;;;;;;;;;4976589;28;20109;-55
2022/12/14 00:23:05;;;;;;;29.73;12.40;;;;;;;;;;4976419;28;20059;-56
2022/12/14 00:25:30;;;;;;;30.73;12.15;;;;;;;;;;4976483;28;20026;-56
2022/12/14 00:27:56;;;;;;;32.40;12.75;;;;;;;;;;4975860;28;20100;-56
2022/12/14 00:30:21;;;;;;;29.27;11.63;;;;;;;;;;4972264;28;20034;-55
2022/12/14 00:32:46;;;;;;;27.75;12.13;;;;;;;;;;4977312;28;20173;-57
2022/12/14 00:35:13;;;;;;;33.38;13.60;;;;;;;;;;4977789;28;20053;-54
2022/12/14 00:37:39;;;;;;;33.05;13.65;;;;;;;;;;4969238;28;20489;-56
2022/12/14 00:40:04;;;;;;;30.42;13.48;;;;;;;;;;4971471;28;20056;-57
2022/12/14 00:42:30;;;;;;;31.15;12.68;;;;;;;;;;4982720;28;20094;-54
2022/12/14 00:44:55;;;;;;;29.98;12.45;;;;;;;;;;4981469;28;20473;-53
2022/12/14 00:47:20;;;;;;;30.50;13.30;;;;;;;;;;4974782;28;20023;-56
2022/12/14 00:49:46;;;;;;;30.25;13.38;;;;;;;;;;4977333;28;20615;-54
2022/12/14 00:52:11;;;;;;;32.55;13.23;;;;;;;;;;4974044;28;20269;-56
2022/12/14 00:54:36;;;;;;;29.67;13.00;;;;;;;;;;4980963;28;20473;-56
2022/12/14 00:57:01;;;;;;;36.20;12.77;;;;;;;;;;4981203;28;20523;-55
2022/12/14 00:59:27;;;;;;;33.08;13.75;;;;;;;;;;4975586;28;20516;-54
2022/12/14 01:01:52;;;;;;;29.80;12.48;;;;;;;;;;4976312;28;20466;-56
2022/12/14 01:04:18;;;;;;;27.20;11.60;;;;;;;;;;4973274;28;20472;-56
2022/12/14 01:06:47;;;;;;;29.23;13.30;;;;;;;;;;4977026;28;20504;-56
2022/12/14 01:09:12;;;;;;;32.60;14.35;;;;;;;;;;4982446;28;20543;-56
2022/12/14 01:11:38;;;;;;;30.83;13.35;;;;;;;;;;4974733;28;20101;-56
2022/12/14 01:14:03;;;;;;;32.40;13.20;;;;;;;;;;4974186;28;20129;-56
2022/12/14 01:16:29;;;;;;;39.05;14.40;;;;;;;;;;4975483;28;20144;-56
2022/12/14 01:18:54;;;;;;;33.22;14.70;;;;;;;;;;4977969;28;20722;-56
2022/12/14 01:21:20;;;;;;;27.05;13.27;;;;;;;;;;4967158;28;20472;-56
2022/12/14 01:23:45;;;;;;;37.45;14.73;;;;;;;;;;4978896;28;20452;-56
2022/12/14 01:26:13;;;;;;;32.05;14.80;;;;;;;;;;4974255;28;20651;-56
2022/12/14 01:28:39;;;;;;;30.70;14.60;;;;;;;;;;4982162;28;20023;-56
2022/12/14 01:31:08;;;;;;;32.85;14.20;;;;;;;;;;4975004;28;20053;-55
2022/12/14 01:33:33;;;;;;;32.33;14.68;;;;;;;;;;4975476;28;20373;-56
2022/12/14 01:36:02;;;;;;;31.05;14.02;;;;;;;;;;4979487;28;20038;-56
2022/12/14 01:38:27;;;;;;;27.73;12.65;;;;;;;;;;4975255;28;20091;-56
2022/12/14 01:40:56;;;;;;;23.95;11.88;;;;;;;;;;4974656;28;20023;-57
2022/12/14 01:43:21;;;;;;;27.05;12.25;;;;;;;;;;4977074;28;20285;-55
2022/12/14 01:45:46;;;;;;;22.27;10.77;;;;;;;;;;4973950;28;20114;-56
2022/12/14 01:48:11;;;;;;;27.45;12.38;;;;;;;;;;4973578;28;20333;-54
2022/12/14 01:50:37;;;;;;;32.15;12.27;;;;;;;;;;4972362;28;20563;-57
2022/12/14 01:53:13;;;;;;;25.88;12.18;;;;;;;;;;4978870;28;20030;-56
2022/12/14 01:55:45;;;;;;;43.63;17.67;;;;;;;;;;4973279;28;20421;-55
2022/12/14 01:58:14;;;;;;;29.25;12.80;;;;;;;;;;4963487;28;20041;-56
2022/12/14 02:00:40;;;;;;;31.52;13.65;;;;;;;;;;4980526;28;20483;-54
2022/12/14 02:03:09;;;;;;;33.22;13.52;;;;;;;;;;4976166;28;20031;-55
2022/12/14 02:05:35;;;;;;;31.48;14.07;;;;;;;;;;4979141;28;20511;-57
2022/12/14 02:08:00;;;;;;;32.03;13.63;;;;;;;;;;4972761;28;20018;-55
2022/12/14 02:10:26;;;;;;;34.47;14.13;;;;;;;;;;4960133;28;20031;-56
2022/12/14 02:12:54;;;;;;;35.45;14.73;;;;;;;;;;4962533;28;20085;-56
2022/12/14 02:15:20;;;;;;;35.25;15.27;;;;;;;;;;4956186;28;20034;-55
2022/12/14 02:17:45;;;;;;;32.22;13.90;;;;;;;;;;4952971;28;20082;-56
2022/12/14 02:20:10;;;;;;;26.35;12.52;;;;;;;;;;4956450;28;20042;-55
2022/12/14 02:22:51;;;;;;;24.58;10.32;;;;;;;;;;4960850;28;20022;-56
2022/12/14 02:25:16;;;;;;;32.45;12.68;;;;;;;;;;4977440;28;20040;-55
2022/12/14 02:27:48;;;;;;;29.63;12.10;;;;;;;;;;4971216;28;20048;-57
2022/12/14 02:30:17;;;;;;;25.13;12.10;;;;;;;;;;4973187;28;20030;-56
2022/12/14 02:32:51;;;;;;;27.55;12.68;;;;;;;;;;4950234;28;20019;-56
2022/12/14 02:35:29;;;;;;;25.10;11.65;;;;;;;;;;4971108;28;20138;-54
2022/12/14 02:37:54;;;;;;;25.90;11.13;;;;;;;;;;4977505;28;20022;-56
2022/12/14 02:40:33;;;;;;;25.33;11.10;;;;;;;;;;4976436;28;20267;-55
2022/12/14 02:43:01;;;;;;;28.27;11.05;;;;;;;;;;4961752;28;20492;-54
2022/12/14 02:45:43;;;;;;;21.92;11.18;;;;;;;;;;4971752;28;20037;-54
2022/12/14 02:48:09;;;;;;;24.20;10.38;;;;;;;;;;4974347;28;20152;-54
2022/12/14 02:50:46;;;;;;;24.98;11.38;;;;;;;;;;4962565;28;20034;-54
2022/12/14 02:53:11;;;;;;;21.08;10.52;;;;;;;;;;4978855;28;20476;-55
2022/12/14 02:55:41;;;;;;;21.67;9.25;;;;;;;;;;4975844;28;20073;-55
2022/12/14 02:58:06;;;;;;;17.88;8.57;;;;;;;;;;4962192;28;20026;-54
2022/12/14 03:00:32;;;;;;;21.20;9.32;;;;;;;;;;4977337;28;20030;-54
2022/12/14 03:02:58;;;;;;;23.45;10.93;;;;;;;;;;4966137;28;20529;-54
2022/12/14 03:05:23;;;;;;;22.67;9.63;;;;;;;;;;4967570;28;20026;-55
2022/12/14 03:07:51;;;;;;;22.80;10.32;;;;;;;;;;4974119;28;20369;-55
2022/12/14 03:10:29;;;;;;;20.05;8.68;;;;;;;;;;4957513;28;20053;-54
2022/12/14 03:12:55;;;;;;;20.73;9.65;;;;;;;;;;4964709;28;20073;-55
2022/12/14 03:15:20;;;;;;;27.90;8.95;;;;;;;;;;4958553;28;20534;-55
2022/12/14 03:17:46;;;;;;;22.38;9.48;;;;;;;;;;4953927;28;20030;-55
2022/12/14 03:20:13;;;;;;;21.50;10.57;;;;;;;;;;4965023;28;20066;-55
2022/12/14 03:22:40;;;;;;;38.22;12.50;;;;;;;;;;4961803;28;20070;-54
2022/12/14 03:25:11;;;;;;;26.45;12.35;;;;;;;;;;4980384;28;20562;-55
2022/12/14 03:27:37;;;;;;;33.00;13.45;;;;;;;;;;4982654;28;20026;-55
2022/12/14 03:30:04;;;;;;;26.50;12.90;;;;;;;;;;4961737;28;20041;-55
2022/12/14 03:32:30;;;;;;;28.02;12.70;;;;;;;;;;4965932;28;20479;-55
2022/12/14 03:35:12;;;;;;;31.73;11.43;;;;;;;;;;4981860;28;20030;-56
2022/12/14 03:37:38;;;;;;;20.65;10.48;;;;;;;;;;4960611;28;20045;-55
2022/12/14 03:40:05;;;;;;;27.48;12.27;;;;;;;;;;4960760;28;20030;-55
2022/12/14 03:42:34;;;;;;;21.45;10.20;;;;;;;;;;4968260;28;20381;-53
2022/12/14 03:45:28;;;;;;;25.75;10.80;;;;;;;;;;4972477;28;20037;-54
2022/12/14 03:48:00;;;;;;;25.05;10.68;;;;;;;;;;4964872;28;20174;-55
2022/12/14 03:50:28;;;;;;;20.67;9.98;;;;;;;;;;4973977;28;20496;-53
2022/12/14 03:53:00;;;;;;;21.33;10.10;;;;;;;;;;4977942;28;20026;-54
2022/12/14 03:55:30;;;;;;;25.40;10.20;;;;;;;;;;4960467;28;20053;-52
2022/12/14 03:58:14;;;;;;;22.83;10.73;;;;;;;;;;4965739;28;20589;-54
2022/12/14 04:01:00;;;;;;;23.80;10.38;;;;;;;;;;4973125;28;20393;-54
2022/12/14 04:03:33;;;;;;;21.67;11.02;;;;;;;;;;4971739;28;20046;-53
2022/12/14 04:06:05;;;;;;;21.58;10.27;;;;;;;;;;4957094;28;20058;-54
2022/12/14 04:08:37;;;;;;;22.75;10.45;;;;;;;;;;4972095;28;20505;-53
2022/12/14 04:19:35;;;;;;;20.00;10.85;;;;;;;;;;4963196;28;20034;-55
2022/12/14 04:22:05;;;;;;;24.17;10.63;;;;;;;;;;4962567;28;20042;-54
2022/12/14 04:27:22;;;;;;;27.73;12.32;;;;;;;;;;4981661;28;20311;-54
2022/12/14 04:29:57;;;;;;;24.83;13.25;;;;;;;;;;4957134;28;20027;-59
2022/12/14 04:32:26;;;;;;;27.48;11.88;;;;;;;;;;4981417;28;20085;-56
2022/12/14 04:34:53;;;;;;;27.55;12.07;;;;;;;;;;4973789;28;20089;-55
2022/12/14 04:37:19;;;;;;;21.02;10.40;;;;;;;;;;4980158;28;20376;-55
2022/12/14 04:39:44;;;;;;;21.35;9.75;;;;;;;;;;4959381;28;20134;-55
2022/12/14 04:42:09;;;;;;;27.63;11.60;;;;;;;;;;4982688;28;20551;-54
2022/12/14 04:44:35;;;;;;;22.70;10.82;;;;;;;;;;4965372;28;20408;-55
2022/12/14 04:47:00;;;;;;;23.05;10.40;;;;;;;;;;4958856;28;20030;-55
2022/12/14 04:49:28;;;;;;;21.60;10.70;;;;;;;;;;4961804;28;20034;-55
2022/12/14 04:51:54;;;;;;;24.50;11.18;;;;;;;;;;4961694;28;20101;-54
2022/12/14 04:54:37;;;;;;;23.73;11.73;;;;;;;;;;4972083;28;20073;-58
2022/12/14 04:57:17;;;;;;;25.17;11.25;;;;;;;;;;4974913;28;20036;-54
2022/12/14 04:59:42;;;;;;;22.00;10.87;;;;;;;;;;4960429;28;20038;-56
2022/12/14 05:02:31;;;;;;;26.15;11.45;;;;;;;;;;4956243;28;20108;-55
2022/12/14 05:05:22;;;;;;;23.33;11.45;;;;;;;;;;4948977;28;20039;-54
2022/12/14 05:07:51;;;;;;;22.92;10.55;;;;;;;;;;4973245;28;20077;-56
2022/12/14 05:10:17;;;;;;;25.20;10.70;;;;;;;;;;4972678;28;20669;-56
2022/12/14 05:13:03;;;;;;;35.50;11.10;;;;;;;;;;4972292;28;20057;-55
2022/12/14 05:15:35;;;;;;;25.02;11.77;;;;;;;;;;4971010;28;20070;-55
2022/12/14 05:18:01;;;;;;;26.20;11.98;;;;;;;;;;4976012;28;20019;-59
2022/12/14 05:20:26;;;;;;;32.15;13.05;;;;;;;;;;4976092;28;20042;-56
2022/12/14 05:22:51;;;;;;;29.67;11.82;;;;;;;;;;4978797;28;20037;-56
2022/12/14 05:25:17;;;;;;;25.77;12.10;;;;;;;;;;4974504;28;20041;-56
2022/12/14 05:27:42;;;;;;;27.23;11.82;;;;;;;;;;4973060;28;20053;-56
2022/12/14 05:30:08;;;;;;;26.25;11.13;;;;;;;;;;4979839;28;20451;-56
2022/12/14 05:32:33;;;;;;;35.38;17.08;;;;;;;;;;4972021;28;20035;-56
2022/12/14 05:34:58;;;;;;;41.17;17.95;;;;;;;;;;4972779;28;20045;-56
2022/12/14 05:37:23;;;;;;;34.72;16.02;;;;;;;;;;4976698;28;20100;-53
2022/12/14 05:39:49;;;;;;;34.15;15.05;;;;;;;;;;4976116;28;20031;-55
2022/12/14 05:42:14;;;;;;;28.70;13.38;;;;;;;;;;4975453;28;20122;-55
2022/12/14 05:44:39;;;;;;;34.97;13.18;;;;;;;;;;4974877;28;20019;-54
2022/12/14 05:47:04;;;;;;;33.85;15.02;;;;;;;;;;4969771;28;20077;-55
2022/12/14 05:49:30;;;;;;;32.70;13.93;;;;;;;;;;4981486;28;20030;-54
2022/12/14 05:51:55;;;;;;;35.05;15.48;;;;;;;;;;4976897;28;20031;-55
2022/12/14 05:54:20;;;;;;;32.53;15.25;;;;;;;;;;4976941;28;20014;-55
2022/12/14 05:56:45;;;;;;;38.60;15.38;;;;;;;;;;4975479;28;20559;-54
2022/12/14 05:59:14;;;;;;;35.38;15.45;;;;;;;;;;4979018;28;20038;-57
2022/12/14 06:01:39;;;;;;;36.05;16.17;;;;;;;;;;4973016;28;20018;-57
2022/12/14 06:04:05;;;;;;;31.25;14.35;;;;;;;;;;4973450;28;20398;-56
2022/12/14 06:06:31;;;;;;;35.38;15.45;;;;;;;;;;4975220;28;20134;-56
2022/12/14 06:08:56;;;;;;;42.28;17.88;;;;;;;;;;4975786;28;20041;-57
2022/12/14 06:11:22;;;;;;;46.33;19.52;;;;;;;;;;4980862;28;20036;-57
2022/12/14 06:13:47;;;;;;;48.55;21.88;;;;;;;;;;4969532;28;20062;-55
2022/12/14 06:16:12;;;;;;;49.92;20.75;;;;;;;;;;4981494;28;20053;-58
2022/12/14 06:18:44;;;;;;;48.70;19.95;;;;;;;;;;4969964;28;20046;-56
2022/12/14 06:21:10;;;;;;;36.25;16.58;;;;;;;;;;4974203;28;20035;-56
2022/12/14 06:23:35;;;;;;;46.42;18.85;;;;;;;;;;4977087;28;20180;-56
2022/12/14 06:26:00;;;;;;;44.50;18.50;;;;;;;;;;4972360;28;20109;-57
2022/12/14 06:28:26;;;;;;;47.78;19.35;;;;;;;;;;4965172;28;20031;-55
2022/12/14 06:30:51;;;;;;;44.50;18.65;;;;;;;;;;4976886;28;20022;-56
2022/12/14 06:33:16;;;;;;;44.95;18.40;;;;;;;;;;4972030;28;20101;-57
2022/12/14 06:35:43;;;;;;;36.85;15.82;;;;;;;;;;4974158;28;20061;-57
2022/12/14 06:38:08;;;;;;;28.65;14.27;;;;;;;;;;4972087;28;20062;-58
2022/12/14 06:40:34;;;;;;;33.60;13.25;;;;;;;;;;4977872;28;20427;-57
2022/12/14 06:42:59;;;;;;;21.27;10.13;;;;;;;;;;4976299;28;20131;-56
2022/12/14 06:45:24;;;;;;;24.48;12.25;;;;;;;;;;4977036;28;20023;-55
2022/12/14 06:47:49;;;;;;;27.27;12.95;;;;;;;;;;4977166;28;20033;-57
2022/12/14 06:50:15;;;;;;;32.83;15.30;;;;;;;;;;4976158;28;20113;-56
2022/12/14 06:52:40;;;;;;;32.38;15.20;;;;;;;;;;4974880;28;20053;-57
2022/12/14 06:55:05;;;;;;;32.80;15.88;;;;;;;;;;4973585;28;20105;-57
2022/12/14 06:57:31;;;;;;;29.08;14.45;;;;;;;;;;4971339;28;20015;-58
2022/12/14 06:59:56;;;;;;;33.25;15.80;;;;;;;;;;4976866;28;20377;-56
2022/12/14 07:02:21;;;;;;;26.98;13.90;;;;;;;;;;4972205;28;20019;-55
2022/12/14 07:04:46;;;;;;;37.20;17.27;;;;;;;;;;4968972;28;20097;-57
2022/12/14 07:07:12;;;;;;;35.40;18.98;;;;;;;;;;4970311;28;20041;-55
2022/12/14 07:09:38;;;;;;;34.78;16.85;;;;;;;;;;4971452;28;20142;-54
2022/12/14 07:12:03;;;;;;;30.60;13.43;;;;;;;;;;4970790;28;20019;-55
2022/12/14 07:14:28;;;;;;;29.40;13.05;;;;;;;;;;4971561;28;20064;-55
2022/12/14 07:16:54;;;;;;;26.67;11.77;;;;;;;;;;4971893;28;20023;-55
2022/12/14 07:19:19;;;;;;;27.05;13.13;;;;;;;;;;4973937;28;20035;-56
2022/12/14 07:21:44;;;;;;;24.50;12.70;;;;;;;;;;4973201;28;20022;-56
2022/12/14 07:24:09;;;;;;;31.40;13.35;;;;;;;;;;4979197;28;20113;-56
2022/12/14 07:26:36;;;;;;;78.07;12.90;;;;;;;;;;4963745;28;20026;-56
2022/12/14 07:29:01;;;;;;;25.95;12.25;;;;;;;;;;4957994;28;20121;-56
2022/12/14 07:31:27;;;;;;;29.88;12.27;;;;;;;;;;4971505;28;20117;-56
2022/12/14 07:33:53;;;;;;;25.27;12.35;;;;;;;;;;4975659;28;20023;-56
2022/12/14 07:36:18;;;;;;;32.22;13.70;;;;;;;;;;4982630;28;20026;-57
2022/12/14 07:38:44;;;;;;;27.42;12.43;;;;;;;;;;4974864;28;20034;-55
2022/12/14 07:41:11;;;;;;;26.33;13.45;;;;;;;;;;4978540;28;20022;-55
2022/12/14 07:43:36;;;;;;;35.95;14.70;;;;;;;;;;4979737;28;20034;-56
2022/12/14 07:46:02;;;;;;;33.55;14.27;;;;;;;;;;4974562;28;20030;-55
2022/12/14 07:48:27;;;;;;;36.95;15.63;;;;;;;;;;4976709;28;20018;-55
2022/12/14 07:50:53;;;;;;;37.47;16.27;;;;;;;;;;4979252;28;20408;-53
2022/12/14 07:53:18;;;;;;;24.85;12.60;;;;;;;;;;4958313;28;20018;-56
2022/12/14 07:55:45;;;;;;;30.30;12.77;;;;;;;;;;4976497;28;20404;-54
2022/12/14 07:58:10;;;;;;;29.52;14.82;;;;;;;;;;4979640;28;20483;-56
2022/12/14 08:00:36;;;;;;;30.33;14.15;;;;;;;;;;4979207;28;20070;-55
2022/12/14 08:03:01;;;;;;;26.23;12.45;;;;;;;;;;4978458;28;20062;-54
2022/12/14 08:05:26;;;;;;;34.88;14.07;;;;;;;;;;4968813;28;20054;-54
2022/12/14 08:07:51;;;;;;;36.90;17.85;;;;;;;;;;4984540;28;20053;-55
2022/12/14 08:10:17;;;;;;;31.95;13.90;;;;;;;;;;4968300;28;20030;-55
2022/12/14 08:12:42;;;;;;;29.52;14.05;;;;;;;;;;4979339;28;20026;-54
2022/12/14 08:15:07;;;;;;;29.98;13.93;;;;;;;;;;4975652;28;20023;-55
2022/12/14 08:17:33;;;;;;;29.27;11.90;;;;;;;;;;4975302;28;20052;-57
2022/12/14 08:19:58;;;;;;;31.30;14.85;;;;;;;;;;4971576;28;20089;-54
2022/12/14 08:22:23;;;;;;;29.20;14.32;;;;;;;;;;4975297;28;20079;-56
2022/12/14 08:24:48;;;;;;;31.70;14.95;;;;;;;;;;4975407;28;20459;-53
2022/12/14 08:27:15;;;;;;;35.33;12.73;;;;;;;;;;4975716;28;20105;-55
2022/12/14 08:29:41;;;;;;;28.17;13.35;;;;;;;;;;4980044;28;20093;-54
2022/12/14 08:32:06;;;;;;;28.42;13.60;;;;;;;;;;4975441;28;20424;-54
2022/12/14 08:34:31;;;;;;;27.88;14.40;;;;;;;;;;4973864;28;20033;-53
2022/12/14 08:36:56;;;;;;;37.38;16.27;;;;;;;;;;4975526;28;20037;-55
2022/12/14 08:39:22;;;;;;;29.38;12.57;;;;;;;;;;4975662;28;20531;-55
2022/12/14 08:41:47;;;;;;;30.83;12.95;;;;;;;;;;4976930;28;20029;-54
2022/12/14 08:44:15;;;;;;;31.65;14.65;;;;;;;;;;4979169;28;20535;-57
2022/12/14 08:46:41;;;;;;;29.90;12.18;;;;;;;;;;4971658;28;20786;-56
2022/12/14 08:49:06;;;;;;;29.60;14.77;;;;;;;;;;4978547;28;20109;-56
2022/12/14 08:51:31;;;;;;;34.65;14.98;;;;;;;;;;4976659;28;20105;-55
2022/12/14 08:53:57;;;;;;;43.38;18.50;;;;;;;;;;4957112;28;20416;-55
2022/12/14 08:56:23;;;;;;;38.90;17.45;;;;;;;;;;4980008;28;20061;-56
2022/12/14 08:58:48;;;;;;;33.10;15.30;;;;;;;;;;4979859;28;20105;-56
2022/12/14 09:01:18;;;;;;;47.45;18.08;;;;;;;;;;4971117;28;20117;-53
2022/12/14 09:03:43;;;;;;;32.73;15.87;;;;;;;;;;4977504;28;20050;-56
2022/12/14 09:06:09;;;;;;;37.30;15.18;;;;;;;;;;4968431;28;20312;-55
2022/12/14 09:08:35;;;;;;;32.58;15.68;;;;;;;;;;4976859;28;20140;-55
2022/12/14 09:11:00;;;;;;;29.42;14.20;;;;;;;;;;4974287;28;20548;-57
2022/12/14 09:13:26;;;;;;;39.60;17.55;;;;;;;;;;4965112;28;20092;-56
2022/12/14 09:16:01;;;;;;;38.70;18.38;;;;;;;;;;4975238;28;20476;-56
2022/12/14 09:18:26;;;;;;;34.33;15.30;;;;;;;;;;4975936;28;20018;-55
2022/12/14 09:20:53;;;;;;;33.95;15.80;;;;;;;;;;4976732;28;20096;-55
2022/12/14 09:23:19;;;;;;;29.15;14.35;;;;;;;;;;4977392;28;20504;-57
2022/12/14 09:25:44;;;;;;;33.55;15.57;;;;;;;;;;4976359;28;20030;-56
2022/12/14 09:28:09;;;;;;;33.08;14.98;;;;;;;;;;4973668;28;20038;-53
2022/12/14 09:30:35;;;;;;;36.95;16.50;;;;;;;;;;4978142;28;20109;-57
2022/12/14 09:33:00;;;;;;;36.25;14.82;;;;;;;;;;4975275;28;20197;-55
2022/12/14 09:35:25;;;;;;;35.10;16.02;;;;;;;;;;4977283;28;20165;-55
2022/12/14 09:37:51;;;;;;;40.78;16.58;;;;;;;;;;4979332;28;20026;-56
2022/12/14 09:40:16;;;;;;;34.17;14.85;;;;;;;;;;4977732;28;20471;-56
2022/12/14 09:42:45;;;;;;;37.20;17.10;;;;;;;;;;4979902;28;20350;-56
2022/12/14 09:45:18;;;;;;;41.90;17.13;;;;;;;;;;4955816;28;20045;-56
2022/12/14 09:47:44;;;;;;;53.40;19.40;;;;;;;;;;4965745;28;20445;-55
2022/12/14 09:50:11;;;;;;;62.65;25.58;;;;;;;;;;4978802;28;20023;-55
2022/12/14 09:52:40;;;;;;;43.33;17.17;;;;;;;;;;4964575;28;20027;-55
2022/12/14 09:55:16;;;;;;;44.92;17.58;;;;;;;;;;4954950;28;20027;-56
2022/12/14 09:57:42;;;;;;;50.17;18.92;;;;;;;;;;4962185;28;20052;-54
2022/12/14 10:00:12;;;;;;;54.05;21.65;;;;;;;;;;4976557;28;20034;-55
2022/12/14 10:02:39;;;;;;;47.85;21.50;;;;;;;;;;4972578;28;20022;-55
2022/12/14 10:05:05;;;;;;;97.53;35.05;;;;;;;;;;4960394;28;20299;-56
2022/12/14 10:07:30;;;;;;;124.47;36.72;;;;;;;;;;4973655;28;20019;-56
2022/12/14 10:09:58;;;;;;;78.72;26.50;;;;;;;;;;4972160;28;20026;-56
2022/12/14 10:12:23;;;;;;;37.03;16.00;;;;;;;;;;4962584;28;20026;-56
2022/12/14 10:14:51;;;;;;;74.78;25.45;;;;;;;;;;4976953;28;20550;-56
2022/12/14 10:17:23;;;;;;;67.72;24.98;;;;;;;;;;4972255;28;20417;-59
2022/12/14 10:19:53;;;;;;;98.30;38.63;;;;;;;;;;4954488;28;20118;-55
2022/12/14 10:22:18;;;;;;;39.13;19.15;;;;;;;;;;4975899;28;20022;-56
2022/12/14 10:24:48;;;;;;;33.63;15.88;;;;;;;;;;4954796;28;20061;-55
2022/12/14 10:27:20;;;;;;;39.00;20.15;;;;;;;;;;4955393;28;20050;-56
2022/12/14 10:29:46;;;;;;;43.70;17.73;;;;;;;;;;4953565;28;20481;-55
2022/12/14 10:32:18;;;;;;;41.55;18.25;;;;;;;;;;4968136;28;20686;-55
2022/12/14 10:34:43;;;;;;;40.28;17.67;;;;;;;;;;4956057;28;20027;-55
2022/12/14 10:37:21;;;;;;;40.35;18.33;;;;;;;;;;4972445;28;20028;-55
2022/12/14 10:39:46;;;;;;;42.72;18.95;;;;;;;;;;4957199;28;20396;-55
2022/12/14 10:42:15;;;;;;;41.03;16.15;;;;;;;;;;4962058;28;20022;-56
2022/12/14 10:44:41;;;;;;;37.80;16.98;;;;;;;;;;4958564;28;20035;-56
2022/12/14 10:47:06;;;;;;;65.28;27.60;;;;;;;;;;4968391;28;20038;-53
2022/12/14 10:49:37;;;;;;;47.50;22.85;;;;;;;;;;4957343;28;20037;-54
2022/12/14 10:52:04;;;;;;;42.08;18.75;;;;;;;;;;4957270;28;20039;-56
2022/12/14 10:54:32;;;;;;;46.80;21.90;;;;;;;;;;4960572;28;20070;-57
2022/12/14 10:56:57;;;;;;;46.58;23.42;;;;;;;;;;4955636;28;20027;-56
2022/12/14 10:59:22;;;;;;;39.15;17.27;;;;;;;;;;4958259;28;20109;-56
2022/12/14 11:01:50;;;;;;;32.33;15.30;;;;;;;;;;4956670;28;20038;-56
2022/12/14 11:04:37;;;;;;;48.75;20.73;;;;;;;;;;4961646;28;20113;-55
2022/12/14 11:07:06;;;;;;;37.42;15.13;;;;;;;;;;4953740;28;20124;-54
2022/12/14 11:09:31;;;;;;;46.35;20.88;;;;;;;;;;4953093;28;20502;-56
2022/12/14 11:12:06;;;;;;;40.30;18.65;;;;;;;;;;4955896;28;20027;-56
2022/12/14 11:14:32;;;;;;;38.10;18.20;;;;;;;;;;4955529;28;20066;-55
2022/12/14 11:16:57;;;;;;;33.92;14.80;;;;;;;;;;4972103;28;20066;-56
2022/12/14 11:19:23;;;;;;;39.75;16.60;;;;;;;;;;4962857;28;20049;-55
2022/12/14 11:21:49;;;;;;;39.25;16.45;;;;;;;;;;4959487;28;20023;-55
2022/12/14 11:24:21;;;;;;;37.88;16.58;;;;;;;;;;4970947;28;20464;-56
2022/12/14 11:26:47;;;;;;;49.70;19.73;;;;;;;;;;4973201;28;20481;-55
2022/12/14 11:29:20;;;;;;;93.03;35.05;;;;;;;;;;4984587;28;20034;-56
2022/12/14 11:31:46;;;;;;;38.85;17.65;;;;;;;;;;4957891;28;20353;-55
2022/12/14 11:34:29;;;;;;;39.20;16.83;;;;;;;;;;4981808;28;20054;-55
2022/12/14 11:36:55;;;;;;;41.10;17.58;;;;;;;;;;4979226;28;20232;-55
2022/12/14 11:39:21;;;;;;;36.70;16.05;;;;;;;;;;4950469;28;20046;-54
2022/12/14 11:42:02;;;;;;;38.00;16.92;;;;;;;;;;4963624;28;20027;-55
2022/12/14 11:44:28;;;;;;;41.33;15.95;;;;;;;;;;4979684;28;20548;-55
2022/12/14 11:46:57;;;;;;;48.83;19.80;;;;;;;;;;4976649;28;20073;-55
2022/12/14 11:49:29;;;;;;;36.30;17.70;;;;;;;;;;4975008;28;20025;-57
2022/12/14 11:52:03;;;;;;;36.08;16.02;;;;;;;;;;4961319;28;20537;-56
2022/12/14 11:54:29;;;;;;;37.42;16.65;;;;;;;;;;4984146;28;20033;-55
2022/12/14 11:56:55;;;;;;;44.47;18.90;;;;;;;;;;4958515;28;20027;-56
2022/12/14 11:59:21;;;;;;;38.03;14.77;;;;;;;;;;4973773;28;20035;-56
2022/12/14 12:01:46;;;;;;;36.50;15.07;;;;;;;;;;4975793;28;20122;-52
2022/12/14 12:04:13;;;;;;;38.55;16.50;;;;;;;;;;4979886;28;20030;-53
2022/12/14 12:06:39;;;;;;;34.65;15.88;;;;;;;;;;4972806;28;20397;-54
2022/12/14 12:09:09;;;;;;;44.45;17.38;;;;;;;;;;4959803;28;20030;-55
2022/12/14 12:11:34;;;;;;;35.85;15.73;;;;;;;;;;4977156;28;20081;-54
2022/12/14 12:14:00;;;;;;;32.42;14.98;;;;;;;;;;4978244;28;20035;-55
2022/12/14 12:16:27;;;;;;;38.03;16.27;;;;;;;;;;4968675;28;20049;-55
2022/12/14 12:18:59;;;;;;;45.95;18.33;;;;;;;;;;4958266;28;20030;-55
2022/12/14 12:21:27;;;;;;;39.78;17.83;;;;;;;;;;4967784;28;20319;-54
2022/12/14 12:23:58;;;;;;;35.40;14.95;;;;;;;;;;4983037;28;20260;-55
2022/12/14 12:26:24;;;;;;;115.38;34.00;;;;;;;;;;4972752;28;20030;-54
2022/12/14 12:28:51;;;;;;;109.97;33.53;;;;;;;;;;4974432;28;20346;-55
2022/12/14 12:31:19;;;;;;;55.50;24.92;;;;;;;;;;4959938;28;20034;-55
2022/12/14 12:34:05;;;;;;;35.92;16.35;;;;;;;;;;4981125;28;20050;-53
2022/12/14 12:36:31;;;;;;;39.55;17.55;;;;;;;;;;4971087;28;20023;-55
2022/12/14 12:38:56;;;;;;;47.13;19.98;;;;;;;;;;4977269;28;20484;-55
2022/12/14 12:41:40;;;;;;;36.47;16.88;;;;;;;;;;4972152;28;20416;-55
2022/12/14 12:44:08;;;;;;;50.28;17.90;;;;;;;;;;4978920;28;20035;-52
2022/12/14 12:46:34;;;;;;;88.43;23.30;;;;;;;;;;4972651;28;20031;-55
2022/12/14 12:48:59;;;;;;;47.17;18.67;;;;;;;;;;4957253;28;20109;-55
2022/12/14 12:51:25;;;;;;;42.03;19.38;;;;;;;;;;4981972;28;20149;-54
2022/12/14 12:54:03;;;;;;;39.95;17.30;;;;;;;;;;4956437;28;20042;-54
2022/12/14 12:56:31;;;;;;;38.83;15.85;;;;;;;;;;4978247;28;20104;-54
2022/12/14 12:58:58;;;;;;;39.35;16.50;;;;;;;;;;4972210;28;20077;-55
2022/12/14 13:01:28;;;;;;;40.17;18.02;;;;;;;;;;4965309;28;20165;-53
2022/12/14 13:03:55;;;;;;;47.57;21.17;;;;;;;;;;4961323;28;20259;-56
2022/12/14 13:06:28;;;;;;;49.17;18.80;;;;;;;;;;4961045;28;20488;-55
2022/12/14 13:08:55;;;;;;;40.53;18.10;;;;;;;;;;4966350;28;20038;-55
2022/12/14 13:11:31;;;;;;;35.25;17.65;;;;;;;;;;4953597;28;20110;-56
2022/12/14 13:14:02;;;;;;;40.20;17.23;;;;;;;;;;4974797;28;20555;-55
2022/12/14 13:16:27;;;;;;;;;;;;;;;;;;4957168;28;20062;-56
2022/12/14 13:18:52;;;;;;;32.42;14.85;;;;;;;;;;4977187;28;19976;-57
2022/12/14 13:21:21;;;;;;;34.67;14.68;;;;;;;;;;4959105;28;20072;-56
2022/12/14 13:23:46;;;;;;;37.28;17.02;;;;;;;;;;4958879;28;20039;-54
2022/12/14 13:26:12;;;;;;;39.38;18.85;;;;;;;;;;4954183;28;20606;-56
2022/12/14 13:28:43;;;;;;;36.40;16.23;;;;;;;;;;4957234;28;20361;-55
2022/12/14 13:31:26;;;;;;;40.92;17.35;;;;;;;;;;4959805;28;20141;-55
2022/12/14 13:34:10;;;;;;;39.00;16.33;;;;;;;;;;4963401;28;20320;-54
2022/12/14 13:36:54;;;;;;;46.10;17.30;;;;;;;;;;4957081;28;20449;-55
2022/12/14 13:39:32;;;;;;;38.33;17.52;;;;;;;;;;4957243;28;20050;-54
2022/12/14 13:42:15;;;;;;;41.08;16.73;;;;;;;;;;4953593;28;20402;-53
2022/12/14 13:44:57;;;;;;;38.92;16.73;;;;;;;;;;4959844;28;20042;-52
2022/12/14 13:47:43;;;;;;;49.15;19.42;;;;;;;;;;4952807;28;20065;-53
2022/12/14 13:50:17;;;;;;;59.92;20.00;;;;;;;;;;4953240;28;20133;-56
2022/12/14 13:52:43;;;;;;;46.05;18.10;;;;;;;;;;4954966;28;20031;-56
2022/12/14 13:55:38;;;;;;;43.97;19.00;;;;;;;;;;4962988;28;20137;-53
2022/12/14 13:58:22;;;;;;;52.85;19.77;;;;;;;;;;4945903;28;20031;-54
2022/12/14 14:00:48;;;;;;;50.00;17.35;;;;;;;;;;4954325;28;20540;-55
2022/12/14 14:03:32;;;;;;;47.65;17.80;;;;;;;;;;4957313;28;20133;-56
2022/12/14 14:06:00;;;;;;;64.05;23.33;;;;;;;;;;4953342;28;20035;-54
2022/12/14 14:08:26;;;;;;;40.50;16.83;;;;;;;;;;4958556;28;20037;-57
2022/12/14 14:10:51;;;;;;;37.40;15.95;;;;;;;;;;4954530;28;20034;-57
2022/12/14 14:13:26;;;;;;;37.72;16.98;;;;;;;;;;4958503;28;20035;-55
2022/12/14 14:15:52;;;;;;;48.00;16.45;;;;;;;;;;4955692;28;20325;-56
2022/12/14 14:18:19;;;;;;;45.08;16.13;;;;;;;;;;4950858;28;20082;-55
2022/12/14 14:20:45;;;;;;;42.55;15.82;;;;;;;;;;4954349;28;20053;-55
2022/12/14 14:23:14;;;;;;;42.15;17.17;;;;;;;;;;4958604;28;20380;-55
2022/12/14 14:25:43;;;;;;;40.03;16.95;;;;;;;;;;4981097;28;20088;-55
2022/12/14 14:28:08;;;;;;;39.90;16.95;;;;;;;;;;4974334;28;20027;-55
2022/12/14 14:30:40;;;;;;;42.58;18.30;;;;;;;;;;4944500;28;20093;-53
2022/12/14 14:33:25;;;;;;;39.35;17.65;;;;;;;;;;4977285;28;20240;-55
2022/12/14 14:35:50;;;;;;;42.15;17.92;;;;;;;;;;4970804;28;20133;-52